createdAt,value
2022-08-26T00:01:42.275Z,11.70
2022-08-26T00:04:12.020Z,13.68
2022-08-26T00:06:39.145Z,12.93
2022-08-26T00:09:09.881Z,14.13
2022-08-26T00:11:36.791Z,16.08
2022-08-26T00:14:05.162Z,15.13
2022-08-26T00:16:32.049Z,15.27
2022-08-26T00:18:59.294Z,17.67
2022-08-26T00:21:25.911Z,18.77
2022-08-26T00:23:52.575Z,19.45
2022-08-26T00:26:19.296Z,18.02
2022-08-26T00:28:47.459Z,18.65
2022-08-26T00:31:14.755Z,19.85
2022-08-26T00:33:41.829Z,19.35
2022-08-26T00:36:09.461Z,20.60
2022-08-26T00:38:46.734Z,20.48
2022-08-26T00:41:13.793Z,21.13
2022-08-26T00:43:47.629Z,21.50
2022-08-26T00:46:19.800Z,22.73
2022-08-26T00:48:50.177Z,22.92
2022-08-26T00:51:29.766Z,23.35
2022-08-26T00:54:07.601Z,22.58
2022-08-26T00:56:46.965Z,20.42
2022-08-26T00:59:17.235Z,23.67
2022-08-26T01:01:45.961Z,24.00
2022-08-26T01:04:17.731Z,25.45
2022-08-26T01:06:45.413Z,24.52
2022-08-26T01:09:12.586Z,25.77
2022-08-26T01:11:41.043Z,24.08
2022-08-26T01:14:08.413Z,25.85
2022-08-26T01:16:36.298Z,23.80
2022-08-26T01:19:14.435Z,25.92
2022-08-26T01:21:50.038Z,23.92
2022-08-26T01:24:17.239Z,27.08
2022-08-26T01:26:45.411Z,24.90
2022-08-26T01:29:15.991Z,27.13
2022-08-26T01:31:46.837Z,24.92
2022-08-26T01:34:19.671Z,25.23
2022-08-26T01:36:51.665Z,25.40
2022-08-26T01:39:19.261Z,24.92
2022-08-26T01:41:47.542Z,24.80
2022-08-26T01:44:23.819Z,25.73
2022-08-26T01:46:52.864Z,26.70
2022-08-26T01:49:22.531Z,26.23
2022-08-26T01:51:53.709Z,25.52
2022-08-26T01:54:23.021Z,25.02
2022-08-26T01:56:51.705Z,24.52
2022-08-26T01:59:20.515Z,24.90
2022-08-26T02:01:48.699Z,25.73
2022-08-26T02:04:23.433Z,25.83
2022-08-26T02:06:51.706Z,25.38
2022-08-26T02:09:20.735Z,26.50
2022-08-26T02:11:47.777Z,27.33
2022-08-26T02:14:22.929Z,26.35
2022-08-26T02:16:55.954Z,27.33
2022-08-26T02:19:27.751Z,25.70
2022-08-26T02:21:54.492Z,25.60
2022-08-26T02:24:27.852Z,26.58
2022-08-26T02:26:57.603Z,25.75
2022-08-26T02:29:31.625Z,26.95
2022-08-26T02:31:58.762Z,26.25
2022-08-26T02:34:31.995Z,23.75
2022-08-26T02:37:05.285Z,25.15
2022-08-26T02:39:33.862Z,26.73
2022-08-26T02:42:01.646Z,26.60
2022-08-26T02:44:29.117Z,24.30
2022-08-26T02:46:56.166Z,26.60
2022-08-26T02:49:24.282Z,25.25
2022-08-26T02:51:51.711Z,25.10
2022-08-26T02:54:21.319Z,25.48
2022-08-26T02:56:49.316Z,23.10
2022-08-26T02:59:15.866Z,23.27
2022-08-26T03:01:44.353Z,24.27
2022-08-26T03:04:12.568Z,24.02
2022-08-26T03:06:41.638Z,19.73
2022-08-26T03:09:08.425Z,21.55
2022-08-26T03:11:36.557Z,23.67
2022-08-26T03:14:04.388Z,21.42
2022-08-26T03:16:33.426Z,20.77
2022-08-26T03:19:00.974Z,19.30
2022-08-26T03:21:27.592Z,19.10
2022-08-26T03:23:54.229Z,19.73
2022-08-26T03:26:28.290Z,17.85
2022-08-26T03:29:13.908Z,18.95
2022-08-26T03:31:41.057Z,19.25
2022-08-26T03:34:09.678Z,17.23
2022-08-26T03:36:38.815Z,19.40
2022-08-26T03:39:07.975Z,17.30
2022-08-26T03:41:35.924Z,18.35
2022-08-26T03:44:04.185Z,18.00
2022-08-26T03:46:33.181Z,17.38
2022-08-26T03:49:01.924Z,15.88
2022-08-26T03:51:28.961Z,17.70
2022-08-26T03:53:55.972Z,15.60
2022-08-26T03:56:23.858Z,16.52
2022-08-26T03:58:50.920Z,15.05
2022-08-26T04:01:17.865Z,15.13
2022-08-26T04:04:00.149Z,16.23
2022-08-26T04:06:32.992Z,14.15
2022-08-26T04:09:02.319Z,14.13
2022-08-26T04:11:34.309Z,13.50
2022-08-26T04:14:05.333Z,13.02
2022-08-26T04:16:32.467Z,12.20
2022-08-26T04:18:59.531Z,13.75
2022-08-26T04:21:27.281Z,13.00
2022-08-26T04:23:54.563Z,13.98
2022-08-26T04:26:24.325Z,13.32
2022-08-26T04:28:52.662Z,12.73
2022-08-26T04:31:20.307Z,12.82
2022-08-26T04:33:49.734Z,13.48
2022-08-26T04:36:16.467Z,12.10
2022-08-26T04:38:43.431Z,14.18
2022-08-26T04:41:15.614Z,13.55
2022-08-26T04:43:44.607Z,11.75
2022-08-26T04:46:13.039Z,12.32
2022-08-26T04:48:42.087Z,12.98
2022-08-26T04:51:09.935Z,14.15
2022-08-26T04:53:37.260Z,12.75
2022-08-26T04:56:04.425Z,12.93
2022-08-26T04:58:32.573Z,13.32
2022-08-26T05:00:59.523Z,11.73
2022-08-26T05:03:30.205Z,12.00
2022-08-26T05:05:58.246Z,11.68
2022-08-26T05:08:25.158Z,10.38
2022-08-26T05:10:56.175Z,11.27
2022-08-26T05:13:26.564Z,11.38
2022-08-26T05:15:54.398Z,10.90
2022-08-26T05:18:23.184Z,10.65
2022-08-26T05:20:54.529Z,10.20
2022-08-26T05:23:23.053Z,9.80
2022-08-26T05:25:55.799Z,10.18
2022-08-26T05:28:25.647Z,10.15
2022-08-26T05:30:52.432Z,10.60
2022-08-26T05:33:19.592Z,10.32
2022-08-26T05:35:47.116Z,10.10
2022-08-26T05:38:21.492Z,11.13
2022-08-26T05:40:52.774Z,11.02
2022-08-26T05:43:20.940Z,11.02
2022-08-26T05:45:49.942Z,11.20
2022-08-26T05:48:22.831Z,12.35
2022-08-26T05:50:53.280Z,12.00
2022-08-26T05:53:21.858Z,10.88
2022-08-26T05:55:51.691Z,12.65
2022-08-26T05:58:20.880Z,12.80
2022-08-26T06:01:00.982Z,13.45
2022-08-26T06:03:29.013Z,12.85
2022-08-26T06:05:56.784Z,11.55
2022-08-26T06:08:24.095Z,11.43
2022-08-26T06:10:53.625Z,10.98
2022-08-26T06:13:23.825Z,13.00
2022-08-26T06:15:51.621Z,11.82
2022-08-26T06:18:21.818Z,13.18
2022-08-26T06:20:57.959Z,13.30
2022-08-26T06:23:45.685Z,12.57
2022-08-26T06:26:13.750Z,11.52
2022-08-26T06:28:40.397Z,11.55
2022-08-26T06:31:10.432Z,10.98
2022-08-26T06:33:37.691Z,11.45
2022-08-26T06:36:06.865Z,10.73
2022-08-26T06:38:33.541Z,10.88
2022-08-26T06:41:00.963Z,11.23
2022-08-26T06:43:29.635Z,11.02
2022-08-26T06:46:09.080Z,10.45
2022-08-26T06:48:36.028Z,10.10
2022-08-26T06:51:09.237Z,10.00
2022-08-26T06:53:37.287Z,9.60
2022-08-26T06:56:06.776Z,9.48
2022-08-26T06:58:34.868Z,9.73
2022-08-26T07:01:11.641Z,9.73
2022-08-26T07:03:39.810Z,8.85
2022-08-26T07:06:06.978Z,8.60
2022-08-26T07:08:33.894Z,9.07
2022-08-26T07:11:05.488Z,8.75
2022-08-26T07:13:33.210Z,8.18
2022-08-26T07:16:02.872Z,9.40
2022-08-26T07:18:29.856Z,8.05
2022-08-26T07:20:56.414Z,8.43
2022-08-26T07:23:23.364Z,7.43
2022-08-26T07:25:49.989Z,7.22
2022-08-26T07:28:16.633Z,7.72
2022-08-26T07:30:43.524Z,7.95
2022-08-26T07:33:10.148Z,7.63
2022-08-26T07:35:38.033Z,7.82
2022-08-26T07:38:04.656Z,7.50
2022-08-26T07:40:32.137Z,6.45
2022-08-26T07:43:00.928Z,6.65
2022-08-26T07:45:27.633Z,5.93
2022-08-26T07:47:54.589Z,5.65
2022-08-26T07:50:22.383Z,6.20
2022-08-26T07:53:10.595Z,5.72
2022-08-26T07:55:37.535Z,5.82
2022-08-26T07:58:05.672Z,5.22
2022-08-26T08:00:33.537Z,5.00
2022-08-26T08:03:04.105Z,4.80
2022-08-26T08:05:33.490Z,4.07
2022-08-26T08:08:27.135Z,4.50
2022-08-26T08:10:52.240Z,4.03
2022-08-26T08:13:19.031Z,4.10
2022-08-26T08:15:46.953Z,3.80
2022-08-26T08:18:17.055Z,4.05
2022-08-26T08:20:47.650Z,3.85
2022-08-26T08:23:31.605Z,3.85
2022-08-26T08:26:09.206Z,4.00
2022-08-26T08:28:38.992Z,3.63
2022-08-26T08:31:06.314Z,3.58
2022-08-26T08:33:35.029Z,3.53
2022-08-26T08:36:01.836Z,3.47
2022-08-26T08:38:28.626Z,3.35
2022-08-26T08:40:55.657Z,3.72
2022-08-26T08:43:32.124Z,3.40
2022-08-26T08:46:10.290Z,3.72
2022-08-26T08:48:43.028Z,3.65
2022-08-26T08:51:22.219Z,3.10
2022-08-26T08:53:51.349Z,3.30
2022-08-26T08:56:32.414Z,2.95
2022-08-26T08:58:59.228Z,3.10
2022-08-26T09:01:47.542Z,2.92
2022-08-26T09:04:40.393Z,3.05
2022-08-26T09:07:13.350Z,3.00
2022-08-26T09:09:46.020Z,2.88
2022-08-26T09:12:20.655Z,3.10
2022-08-26T09:15:07.658Z,3.40
2022-08-26T09:18:10.806Z,2.83
2022-08-26T09:20:48.796Z,2.72
2022-08-26T09:23:15.545Z,2.80
2022-08-26T09:25:56.446Z,3.22
2022-08-26T09:28:25.532Z,2.58
2022-08-26T09:31:27.726Z,2.70
2022-08-26T09:34:17.783Z,2.67
2022-08-26T09:36:49.105Z,2.83
2022-08-26T09:39:25.861Z,2.50
2022-08-26T09:42:11.940Z,2.35
2022-08-26T09:44:55.883Z,2.60
2022-08-26T09:47:30.260Z,3.10
2022-08-26T09:50:38.666Z,2.90
2022-08-26T09:53:14.524Z,3.03
2022-08-26T09:55:44.095Z,2.88
2022-08-26T09:58:34.976Z,3.08
2022-08-26T10:01:07.643Z,2.80
2022-08-26T10:03:38.043Z,2.88
2022-08-26T10:06:20.980Z,2.70
2022-08-26T10:08:54.937Z,2.70
2022-08-26T10:11:59.197Z,2.80
2022-08-26T10:14:39.853Z,2.67
2022-08-26T10:17:10.006Z,2.92
2022-08-26T10:19:55.957Z,2.97
2022-08-26T10:22:51.261Z,3.15
2022-08-26T10:25:26.191Z,2.30
2022-08-26T10:28:09.501Z,2.80
2022-08-26T10:30:50.910Z,2.85
2022-08-26T10:33:18.479Z,2.85
2022-08-26T10:35:52.297Z,3.42
2022-08-26T10:38:27.492Z,2.80
2022-08-26T10:41:10.364Z,2.75
2022-08-26T10:43:42.732Z,2.75
2022-08-26T10:46:15.412Z,2.67
2022-08-26T10:48:55.834Z,2.40
2022-08-26T10:51:27.505Z,2.22
2022-08-26T10:54:23.788Z,2.40
2022-08-26T10:57:15.274Z,2.33
2022-08-26T10:59:50.876Z,2.55
2022-08-26T11:02:37.393Z,2.22
2022-08-26T11:05:15.216Z,2.60
2022-08-26T11:07:52.688Z,2.30
2022-08-26T11:10:21.551Z,2.15
2022-08-26T11:13:09.129Z,2.53
2022-08-26T11:15:38.699Z,1.90
2022-08-26T11:18:10.990Z,2.35
2022-08-26T11:20:42.124Z,1.80
2022-08-26T11:23:21.216Z,2.60
2022-08-26T11:25:57.432Z,2.17
2022-08-26T11:28:39.731Z,1.88
2022-08-26T11:31:20.244Z,2.08
2022-08-26T11:33:52.268Z,1.67
2022-08-26T11:36:36.291Z,1.73
2022-08-26T11:39:20.885Z,2.05
2022-08-26T11:41:52.861Z,2.10
2022-08-26T11:44:23.659Z,1.98
2022-08-26T11:47:00.892Z,1.70
2022-08-26T11:49:28.860Z,2.33
2022-08-26T11:52:21.087Z,1.65
2022-08-26T11:55:11.090Z,2.20
2022-08-26T11:57:45.481Z,1.85
2022-08-26T12:00:22.232Z,1.80
2022-08-26T12:02:50.241Z,1.90
2022-08-26T12:05:25.739Z,1.90
2022-08-26T12:07:57.049Z,2.15
2022-08-26T12:10:32.754Z,1.90
2022-08-26T12:13:02.455Z,1.73
2022-08-26T12:15:31.330Z,2.10
2022-08-26T12:18:00.328Z,2.00
2022-08-26T12:20:48.298Z,1.90
2022-08-26T12:23:26.961Z,1.88
2022-08-26T12:26:05.537Z,1.90
2022-08-26T12:28:33.123Z,1.88
2022-08-26T12:31:06.039Z,1.95
2022-08-26T12:33:36.346Z,2.25
2022-08-26T12:36:05.164Z,1.60
2022-08-26T12:38:33.995Z,1.85
2022-08-26T12:41:00.711Z,1.65
2022-08-26T12:43:43.297Z,1.95
2022-08-26T12:46:17.673Z,1.88
2022-08-26T12:48:48.456Z,1.33
2022-08-26T12:51:23.908Z,2.03
2022-08-26T12:53:50.599Z,1.50
2022-08-26T12:56:33.966Z,1.70
2022-08-26T12:59:25.120Z,1.50
2022-08-26T13:01:53.584Z,2.45
2022-08-26T13:04:36.857Z,1.42
2022-08-26T13:07:18.771Z,1.60
2022-08-26T13:09:45.273Z,2.08
2022-08-26T13:12:12.184Z,2.05
2022-08-26T13:14:40.478Z,1.85
2022-08-26T13:17:07.049Z,2.28
2022-08-26T13:19:33.715Z,1.45
2022-08-26T13:22:00.766Z,1.50
2022-08-26T13:24:41.863Z,1.40
2022-08-26T13:27:11.434Z,1.90
2022-08-26T13:29:38.236Z,1.70
2022-08-26T13:32:06.713Z,1.70
2022-08-26T13:34:36.761Z,1.70
2022-08-26T13:37:03.425Z,1.95
2022-08-26T13:39:30.407Z,1.73
2022-08-26T13:41:57.090Z,2.05
2022-08-26T13:44:23.933Z,1.52
2022-08-26T13:46:50.493Z,1.80
2022-08-26T13:49:17.331Z,1.88
2022-08-26T13:51:43.865Z,1.38
2022-08-26T13:54:10.503Z,1.50
2022-08-26T13:56:37.517Z,1.98
2022-08-26T13:59:05.774Z,1.60
2022-08-26T14:01:34.078Z,1.58
2022-08-26T14:04:00.785Z,1.67
2022-08-26T14:06:27.397Z,1.92
2022-08-26T14:08:53.931Z,1.70
2022-08-26T14:11:21.524Z,1.55
2022-08-26T14:13:48.237Z,1.50
2022-08-26T14:16:25.769Z,1.67
2022-08-26T14:18:53.498Z,1.67
2022-08-26T14:21:20.668Z,1.60
2022-08-26T14:23:47.616Z,1.17
2022-08-26T14:26:28.526Z,1.70
2022-08-26T14:28:57.873Z,1.98
2022-08-26T14:31:29.078Z,1.42
2022-08-26T14:33:59.397Z,1.70
2022-08-26T14:36:32.212Z,1.23
2022-08-26T14:39:11.602Z,1.70
2022-08-26T14:41:46.032Z,1.83
2022-08-26T14:44:21.924Z,1.58
2022-08-26T14:46:50.816Z,1.63
2022-08-26T14:49:19.078Z,1.88
2022-08-26T14:51:46.119Z,1.20
2022-08-26T14:54:16.726Z,1.30
2022-08-26T14:56:59.112Z,1.42
2022-08-26T14:59:27.758Z,1.90
2022-08-26T15:01:55.267Z,1.77
2022-08-26T15:04:23.225Z,1.60
2022-08-26T15:06:50.643Z,1.73
2022-08-26T15:09:17.409Z,1.90
2022-08-26T15:11:44.605Z,1.40
2022-08-26T15:14:19.604Z,1.50
2022-08-26T15:16:48.476Z,1.70
2022-08-26T15:19:15.759Z,1.38
2022-08-26T15:21:43.429Z,1.50
2022-08-26T15:24:10.171Z,1.50
2022-08-26T15:26:39.377Z,2.10
2022-08-26T15:29:06.215Z,2.42
2022-08-26T15:31:33.893Z,1.60
2022-08-26T15:34:04.531Z,1.88
2022-08-26T15:36:33.108Z,1.63
2022-08-26T15:39:00.653Z,1.52
2022-08-26T15:41:28.355Z,10.13
2022-08-26T15:43:54.928Z,2.65
2022-08-26T15:46:21.703Z,2.10
2022-08-26T15:48:48.556Z,2.45
2022-08-26T15:51:27.950Z,1.83
2022-08-26T15:53:56.377Z,2.05
2022-08-26T15:56:27.395Z,2.20
2022-08-26T15:58:56.302Z,1.50
2022-08-26T16:01:27.169Z,2.05
2022-08-26T16:03:55.672Z,1.60
2022-08-26T16:06:25.719Z,1.70
2022-08-26T16:08:52.335Z,1.40
2022-08-26T16:11:19.841Z,2.00
2022-08-26T16:13:47.246Z,1.42
2022-08-26T16:16:14.707Z,1.13
2022-08-26T16:18:42.369Z,1.23
2022-08-26T16:21:13.562Z,1.70
2022-08-26T16:23:40.943Z,1.30
2022-08-26T16:26:15.582Z,1.30
2022-08-26T16:28:43.550Z,1.35
2022-08-26T16:31:11.131Z,1.45
2022-08-26T16:33:37.952Z,1.60
2022-08-26T16:36:06.474Z,1.70
2022-08-26T16:38:33.765Z,1.30
2022-08-26T16:41:01.258Z,1.50
2022-08-26T16:43:28.612Z,1.63
2022-08-26T16:45:56.111Z,1.30
2022-08-26T16:48:23.597Z,1.23
2022-08-26T16:50:51.173Z,1.60
2022-08-26T16:53:18.893Z,1.55
2022-08-26T16:55:47.727Z,1.17
2022-08-26T16:58:15.160Z,1.40
2022-08-26T17:00:41.886Z,1.50
2022-08-26T17:03:10.038Z,1.80
2022-08-26T17:05:37.107Z,1.40
2022-08-26T17:08:04.940Z,2.00
2022-08-26T17:10:32.818Z,1.45
2022-08-26T17:13:00.312Z,1.40
2022-08-26T17:15:27.202Z,1.70
2022-08-26T17:17:54.814Z,1.60
2022-08-26T17:20:23.180Z,2.00
2022-08-26T17:22:51.700Z,1.35
2022-08-26T17:25:24.837Z,1.48
2022-08-26T17:27:51.993Z,1.60
2022-08-26T17:30:19.675Z,1.30
2022-08-26T17:32:46.335Z,1.55
2022-08-26T17:35:14.199Z,1.95
2022-08-26T17:37:41.343Z,1.83
2022-08-26T17:40:11.624Z,1.40
2022-08-26T17:42:40.189Z,1.35
2022-08-26T17:45:08.435Z,1.40
2022-08-26T17:47:35.780Z,2.00
2022-08-26T17:50:03.854Z,1.60
2022-08-26T17:52:30.719Z,1.85
2022-08-26T17:54:57.911Z,1.52
2022-08-26T17:57:25.892Z,1.60
2022-08-26T17:59:53.687Z,1.45
2022-08-26T18:02:21.147Z,1.63
2022-08-26T18:04:48.145Z,1.60
2022-08-26T18:07:15.208Z,1.38
2022-08-26T18:09:42.020Z,1.73
2022-08-26T18:12:09.418Z,1.55
2022-08-26T18:14:36.421Z,1.40
2022-08-26T18:17:03.673Z,1.50
2022-08-26T18:19:31.393Z,2.10
2022-08-26T18:21:58.473Z,1.33
2022-08-26T18:24:25.388Z,1.33
2022-08-26T18:26:52.015Z,2.05
2022-08-26T18:29:19.927Z,1.02
2022-08-26T18:31:48.468Z,1.30
2022-08-26T18:34:16.591Z,1.27
2022-08-26T18:36:43.906Z,1.30
2022-08-26T18:39:11.848Z,1.08
2022-08-26T18:41:44.112Z,1.25
2022-08-26T18:44:13.675Z,1.13
2022-08-26T18:46:41.400Z,1.10
2022-08-26T18:49:08.464Z,1.30
2022-08-26T18:51:35.584Z,1.13
2022-08-26T18:54:05.493Z,1.00
2022-08-26T18:56:33.780Z,1.20
2022-08-26T18:59:00.635Z,1.50
2022-08-26T19:01:28.529Z,1.30
2022-08-26T19:03:57.934Z,1.52
2022-08-26T19:06:25.696Z,1.02
2022-08-26T19:08:53.801Z,1.38
2022-08-26T19:11:31.333Z,1.10
2022-08-26T19:14:01.608Z,1.13
2022-08-26T19:16:29.608Z,1.10
2022-08-26T19:18:58.876Z,1.05
2022-08-26T19:21:25.908Z,1.10
2022-08-26T19:23:56.886Z,1.65
2022-08-26T19:26:24.332Z,1.30
2022-08-26T19:28:51.350Z,1.17
2022-08-26T19:31:17.952Z,1.20
2022-08-26T19:33:45.531Z,1.35
2022-08-26T19:36:19.098Z,1.15
2022-08-26T19:38:47.594Z,0.90
2022-08-26T19:41:18.292Z,1.00
2022-08-26T19:43:46.269Z,1.05
2022-08-26T19:46:23.119Z,1.08
2022-08-26T19:48:54.049Z,1.23
2022-08-26T19:51:30.705Z,1.10
2022-08-26T19:53:59.128Z,1.02
2022-08-26T19:56:28.009Z,1.50
2022-08-26T19:58:55.600Z,1.10
2022-08-26T20:01:22.680Z,1.20
2022-08-26T20:03:49.444Z,1.50
2022-08-26T20:06:20.257Z,1.30
2022-08-26T20:08:47.189Z,1.00
2022-08-26T20:11:16.735Z,1.13
2022-08-26T20:13:45.595Z,1.17
2022-08-26T20:16:12.633Z,0.82
2022-08-26T20:18:59.879Z,1.05
2022-08-26T20:21:29.440Z,1.40
2022-08-26T20:24:04.594Z,0.88
2022-08-26T20:26:33.338Z,1.80
2022-08-26T20:29:00.358Z,1.05
2022-08-26T20:31:28.076Z,1.70
2022-08-26T20:33:54.873Z,1.27
2022-08-26T20:36:24.283Z,1.00
2022-08-26T20:38:50.991Z,1.23
2022-08-26T20:41:18.270Z,0.98
2022-08-26T20:43:46.189Z,1.30
2022-08-26T20:46:17.233Z,0.95
2022-08-26T20:48:45.878Z,0.80
2022-08-26T20:51:12.531Z,1.08
2022-08-26T20:53:39.334Z,1.30
2022-08-26T20:56:08.816Z,1.50
2022-08-26T20:58:35.936Z,1.70
2022-08-26T21:01:07.334Z,1.50
2022-08-26T21:03:35.792Z,1.55
2022-08-26T21:06:03.728Z,1.00
2022-08-26T21:08:30.661Z,1.27
2022-08-26T21:10:59.960Z,1.80
2022-08-26T21:13:26.720Z,1.20
2022-08-26T21:15:57.943Z,1.40
2022-08-26T21:18:24.951Z,1.35
2022-08-26T21:20:51.739Z,1.00
2022-08-26T21:23:19.238Z,1.15
2022-08-26T21:25:46.576Z,1.20
2022-08-26T21:28:13.253Z,1.05
2022-08-26T21:30:41.103Z,1.73
2022-08-26T21:33:08.305Z,1.05
2022-08-26T21:35:34.921Z,1.10
2022-08-26T21:38:01.834Z,1.20
2022-08-26T21:40:28.635Z,1.27
2022-08-26T21:42:55.277Z,1.30
2022-08-26T21:45:22.128Z,1.50
2022-08-26T21:47:48.825Z,0.98
2022-08-26T21:50:15.348Z,1.60
2022-08-26T21:52:41.867Z,1.38
2022-08-26T21:55:09.506Z,1.67
2022-08-26T21:57:38.797Z,1.13
2022-08-26T22:00:08.892Z,1.20
2022-08-26T22:02:36.773Z,1.23
2022-08-26T22:05:03.952Z,1.50
2022-08-26T22:07:30.531Z,1.35
2022-08-26T22:09:57.158Z,1.45
2022-08-26T22:12:23.754Z,1.10
2022-08-26T22:14:50.425Z,1.27
2022-08-26T22:17:17.143Z,1.30
2022-08-26T22:19:46.273Z,1.48
2022-08-26T22:22:14.380Z,1.60
2022-08-26T22:24:43.288Z,1.45
2022-08-26T22:27:11.973Z,1.55
2022-08-26T22:29:38.691Z,1.30
2022-08-26T22:32:05.501Z,1.27
2022-08-26T22:34:32.258Z,1.48
2022-08-26T22:36:59.643Z,1.30
2022-08-26T22:39:26.562Z,1.55
2022-08-26T22:41:55.236Z,1.40
2022-08-26T22:44:22.783Z,1.50
2022-08-26T22:46:51.675Z,1.23
2022-08-26T22:49:18.357Z,1.48
2022-08-26T22:51:45.845Z,1.48
2022-08-26T22:54:13.477Z,1.17
2022-08-26T22:56:40.481Z,1.13
2022-08-26T22:59:08.471Z,1.05
2022-08-26T23:01:38.898Z,1.48
2022-08-26T23:04:07.006Z,1.95
2022-08-26T23:06:40.340Z,1.33
2022-08-26T23:09:08.622Z,1.35
2022-08-26T23:11:35.418Z,1.35
2022-08-26T23:14:02.334Z,1.10
2022-08-26T23:16:40.719Z,1.75
2022-08-26T23:19:09.552Z,1.30
2022-08-26T23:21:36.469Z,1.30
2022-08-26T23:24:03.782Z,1.33
2022-08-26T23:26:31.706Z,1.63
2022-08-26T23:28:58.438Z,1.45
2022-08-26T23:31:25.225Z,1.63
2022-08-26T23:34:10.463Z,1.33
2022-08-26T23:36:37.034Z,1.75
2022-08-26T23:39:05.598Z,1.48
2022-08-26T23:41:35.793Z,1.38
2022-08-26T23:44:05.335Z,1.20
2022-08-26T23:46:36.299Z,1.35
2022-08-26T23:49:04.321Z,2.50
2022-08-26T23:51:50.046Z,1.38
2022-08-26T23:54:16.958Z,1.60
2022-08-26T23:56:43.964Z,1.40
2022-08-26T23:59:10.678Z,1.40
